Rocky Butte, Washington
Current Conditions -  °F | °C
As of 4:53 PM on Tuesday 21 Oct 2014 (Local Time) from KOMK Reporting Station
Scattered Clouds Scattered Clouds  
Wind Chill: 61°   Ceiling: Unl
Heat Index: 61°   Visibility: 10mi
Dew Point: 45°   Wind: 14mph
Humidity: 56%   Direction: 150°SSE
Pressure: 29.87"   Gusts: NA
Location:  48.2133°N, 119.829°W
Report Text: KOMK 212353Z AUTO 15012KT 10SM SCT080 16/07 A2987 RMK AO2 SLP114 T01610072 10172 20133 56002
Loading
Personal Weather Stations






























Interactive Weather Map
Tropical Storm Tracking
New forecast layout! Learn more

10-Day Weather Forecast

Advertisements
Track Severe Weather on mobile